Murdock, Nebraska
Current Conditions -  °F | °C
As of 3:55 AM on Friday 28 Nov 2014 (Local Time) from KPMV Reporting Station
Clear Clear  
Wind Chill: -8°   Ceiling: Unl
Heat Index: -2°   Visibility: 10mi
Dew Point: -6°   Wind: 14mph
Humidity: 73%   Direction: 150°SSE
Pressure: 29.97"   Gusts: 21mph
Location:  40.93°N, 96.28°W
Report Text: KPMV 280955Z AUTO 15012G18KT 10SM CLR M02/M06 A2997 RMK AO2 T10181060
Loading
Personal Weather Stations






























Interactive Weather Map New forecast layout! Learn more

10-Day Weather Forecast

Advertisements
Track Severe Weather on mobile